sensor_id;sensor_type;location;lat;lon;timestamp;P1;durP1;ratioP1;P2;durP2;ratioP2
57551;SDS011;43379;48.160;14.036;2022-09-23T00:00:57;6.27;;;5.77;;
57551;SDS011;43379;48.160;14.036;2022-09-23T00:03:24;6.50;;;6.07;;
57551;SDS011;43379;48.160;14.036;2022-09-23T00:05:59;6.63;;;6.23;;
57551;SDS011;43379;48.160;14.036;2022-09-23T00:08:26;6.13;;;5.67;;
57551;SDS011;43379;48.160;14.036;2022-09-23T00:10:52;7.27;;;6.67;;
57551;SDS011;43379;48.160;14.036;2022-09-23T00:13:18;7.23;;;6.57;;
57551;SDS011;43379;48.160;14.036;2022-09-23T00:15:44;6.10;;;5.60;;
57551;SDS011;43379;48.160;14.036;2022-09-23T00:18:10;7.83;;;6.57;;
57551;SDS011;43379;48.160;14.036;2022-09-23T00:20:36;6.73;;;6.30;;
57551;SDS011;43379;48.160;14.036;2022-09-23T00:23:02;6.47;;;5.87;;
57551;SDS011;43379;48.160;14.036;2022-09-23T00:25:28;7.10;;;6.60;;
57551;SDS011;43379;48.160;14.036;2022-09-23T00:27:54;6.67;;;6.17;;
57551;SDS011;43379;48.160;14.036;2022-09-23T00:30:20;6.77;;;6.27;;
57551;SDS011;43379;48.160;14.036;2022-09-23T00:32:47;7.53;;;6.80;;
57551;SDS011;43379;48.160;14.036;2022-09-23T00:35:13;7.03;;;6.43;;
57551;SDS011;43379;48.160;14.036;2022-09-23T00:37:39;6.93;;;6.33;;
57551;SDS011;43379;48.160;14.036;2022-09-23T00:40:05;7.00;;;6.50;;
57551;SDS011;43379;48.160;14.036;2022-09-23T00:42:32;7.13;;;6.63;;
57551;SDS011;43379;48.160;14.036;2022-09-23T00:44:59;6.80;;;6.30;;
57551;SDS011;43379;48.160;14.036;2022-09-23T00:52:51;7.00;;;6.50;;
57551;SDS011;43379;48.160;14.036;2022-09-23T00:55:20;7.10;;;6.60;;
57551;SDS011;43379;48.160;14.036;2022-09-23T00:57:49;6.73;;;6.10;;
57551;SDS011;43379;48.160;14.036;2022-09-23T01:00:18;6.33;;;5.83;;
57551;SDS011;43379;48.160;14.036;2022-09-23T01:02:45;6.17;;;5.63;;
57551;SDS011;43379;48.160;14.036;2022-09-23T01:05:11;6.77;;;6.27;;
57551;SDS011;43379;48.160;14.036;2022-09-23T01:07:37;6.70;;;6.00;;
57551;SDS011;43379;48.160;14.036;2022-09-23T01:10:03;7.50;;;6.90;;
57551;SDS011;43379;48.160;14.036;2022-09-23T01:26:43;11.07;;;10.20;;
57551;SDS011;43379;48.160;14.036;2022-09-23T01:29:51;10.03;;;9.23;;
57551;SDS011;43379;48.160;14.036;2022-09-23T01:43:03;9.77;;;8.97;;
57551;SDS011;43379;48.160;14.036;2022-09-23T01:45:37;10.07;;;9.17;;
57551;SDS011;43379;48.160;14.036;2022-09-23T01:51:01;11.53;;;10.53;;
57551;SDS011;43379;48.160;14.036;2022-09-23T01:56:25;9.83;;;9.13;;
57551;SDS011;43379;48.160;14.036;2022-09-23T02:01:57;9.63;;;8.73;;
57551;SDS011;43379;48.160;14.036;2022-09-23T02:04:29;8.87;;;8.17;;
57551;SDS011;43379;48.160;14.036;2022-09-23T02:07:08;8.23;;;7.63;;
57551;SDS011;43379;48.160;14.036;2022-09-23T02:09:42;9.50;;;8.70;;
57551;SDS011;43379;48.160;14.036;2022-09-23T02:12:14;8.77;;;8.00;;
57551;SDS011;43379;48.160;14.036;2022-09-23T02:17:16;9.17;;;8.47;;
57551;SDS011;43379;48.160;14.036;2022-09-23T02:19:50;9.33;;;8.53;;
57551;SDS011;43379;48.160;14.036;2022-09-23T02:24:59;8.50;;;7.90;;
57551;SDS011;43379;48.160;14.036;2022-09-23T02:27:28;9.67;;;8.67;;
57551;SDS011;43379;48.160;14.036;2022-09-23T02:30:06;8.90;;;8.23;;
57551;SDS011;43379;48.160;14.036;2022-09-23T02:32:53;9.77;;;8.87;;
57551;SDS011;43379;48.160;14.036;2022-09-23T02:43:08;11.10;;;10.00;;
57551;SDS011;43379;48.160;14.036;2022-09-23T02:45:43;10.80;;;9.90;;
57551;SDS011;43379;48.160;14.036;2022-09-23T02:48:30;10.80;;;9.83;;
57551;SDS011;43379;48.160;14.036;2022-09-23T02:51:04;12.70;;;11.13;;
57551;SDS011;43379;48.160;14.036;2022-09-23T02:53:30;13.20;;;11.10;;
57551;SDS011;43379;48.160;14.036;2022-09-23T02:56:00;15.63;;;11.53;;
57551;SDS011;43379;48.160;14.036;2022-09-23T02:58:27;12.13;;;10.40;;
57551;SDS011;43379;48.160;14.036;2022-09-23T03:01:08;17.33;;;11.60;;
57551;SDS011;43379;48.160;14.036;2022-09-23T03:07:00;11.00;;;10.00;;
57551;SDS011;43379;48.160;14.036;2022-09-23T03:17:58;11.77;;;10.83;;
57551;SDS011;43379;48.160;14.036;2022-09-23T03:21:18;11.50;;;10.50;;
57551;SDS011;43379;48.160;14.036;2022-09-23T03:23:30;10.73;;;9.83;;
57551;SDS011;43379;48.160;14.036;2022-09-23T03:26:02;13.10;;;11.90;;
57551;SDS011;43379;48.160;14.036;2022-09-23T03:28:35;11.10;;;10.20;;
57551;SDS011;43379;48.160;14.036;2022-09-23T03:31:02;10.80;;;9.90;;
57551;SDS011;43379;48.160;14.036;2022-09-23T03:33:29;10.53;;;9.63;;
57551;SDS011;43379;48.160;14.036;2022-09-23T03:35:58;12.03;;;10.83;;
57551;SDS011;43379;48.160;14.036;2022-09-23T03:38:47;12.40;;;11.13;;
57551;SDS011;43379;48.160;14.036;2022-09-23T03:41:20;13.23;;;10.17;;
57551;SDS011;43379;48.160;14.036;2022-09-23T03:43:52;10.40;;;9.40;;
57551;SDS011;43379;48.160;14.036;2022-09-23T03:46:23;11.43;;;10.53;;
57551;SDS011;43379;48.160;14.036;2022-09-23T03:48:50;12.13;;;10.27;;
57551;SDS011;43379;48.160;14.036;2022-09-23T03:51:20;11.00;;;9.90;;
57551;SDS011;43379;48.160;14.036;2022-09-23T03:53:47;10.60;;;9.70;;
57551;SDS011;43379;48.160;14.036;2022-09-23T03:56:14;11.57;;;10.57;;
57551;SDS011;43379;48.160;14.036;2022-09-23T03:58:40;11.83;;;10.67;;
57551;SDS011;43379;48.160;14.036;2022-09-23T04:01:05;11.53;;;10.53;;
57551;SDS011;43379;48.160;14.036;2022-09-23T04:03:31;11.40;;;10.40;;
57551;SDS011;43379;48.160;14.036;2022-09-23T04:05:57;11.80;;;10.70;;
57551;SDS011;43379;48.160;14.036;2022-09-23T04:08:22;12.20;;;10.73;;
57551;SDS011;43379;48.160;14.036;2022-09-23T04:10:48;11.87;;;10.10;;
57551;SDS011;43379;48.160;14.036;2022-09-23T04:13:14;11.53;;;10.33;;
57551;SDS011;43379;48.160;14.036;2022-09-23T04:15:40;10.90;;;9.90;;
57551;SDS011;43379;48.160;14.036;2022-09-23T04:18:06;10.90;;;9.90;;
57551;SDS011;43379;48.160;14.036;2022-09-23T04:20:31;11.33;;;10.17;;
57551;SDS011;43379;48.160;14.036;2022-09-23T04:22:57;10.77;;;9.63;;
57551;SDS011;43379;48.160;14.036;2022-09-23T04:25:22;12.67;;;11.40;;
57551;SDS011;43379;48.160;14.036;2022-09-23T04:27:48;11.67;;;10.57;;
57551;SDS011;43379;48.160;14.036;2022-09-23T04:30:14;12.17;;;10.73;;
57551;SDS011;43379;48.160;14.036;2022-09-23T04:32:39;10.83;;;10.03;;
57551;SDS011;43379;48.160;14.036;2022-09-23T04:35:05;10.63;;;9.67;;
57551;SDS011;43379;48.160;14.036;2022-09-23T04:37:31;10.93;;;10.03;;
57551;SDS011;43379;48.160;14.036;2022-09-23T04:39:57;10.33;;;9.17;;
57551;SDS011;43379;48.160;14.036;2022-09-23T04:42:23;9.10;;;8.30;;
57551;SDS011;43379;48.160;14.036;2022-09-23T04:44:51;11.33;;;10.17;;
57551;SDS011;43379;48.160;14.036;2022-09-23T04:47:17;10.30;;;9.30;;
57551;SDS011;43379;48.160;14.036;2022-09-23T04:49:43;10.30;;;9.40;;
57551;SDS011;43379;48.160;14.036;2022-09-23T04:52:08;10.77;;;9.87;;
57551;SDS011;43379;48.160;14.036;2022-09-23T04:54:34;13.43;;;12.03;;
57551;SDS011;43379;48.160;14.036;2022-09-23T04:57:00;14.40;;;13.10;;
57551;SDS011;43379;48.160;14.036;2022-09-23T04:59:26;15.20;;;13.90;;
57551;SDS011;43379;48.160;14.036;2022-09-23T05:01:51;15.07;;;13.67;;
57551;SDS011;43379;48.160;14.036;2022-09-23T05:04:18;13.60;;;12.30;;
57551;SDS011;43379;48.160;14.036;2022-09-23T05:06:44;13.00;;;11.73;;
57551;SDS011;43379;48.160;14.036;2022-09-23T05:09:12;12.43;;;11.20;;
57551;SDS011;43379;48.160;14.036;2022-09-23T05:11:40;13.13;;;11.93;;
57551;SDS011;43379;48.160;14.036;2022-09-23T05:14:05;13.47;;;12.23;;
57551;SDS011;43379;48.160;14.036;2022-09-23T05:16:31;12.10;;;11.10;;
57551;SDS011;43379;48.160;14.036;2022-09-23T05:18:57;14.30;;;12.90;;
57551;SDS011;43379;48.160;14.036;2022-09-23T05:21:24;12.70;;;11.50;;
57551;SDS011;43379;48.160;14.036;2022-09-23T05:23:52;15.43;;;12.87;;
57551;SDS011;43379;48.160;14.036;2022-09-23T05:26:24;13.20;;;12.00;;
57551;SDS011;43379;48.160;14.036;2022-09-23T05:28:52;13.97;;;12.03;;
57551;SDS011;43379;48.160;14.036;2022-09-23T05:31:19;13.20;;;11.93;;
57551;SDS011;43379;48.160;14.036;2022-09-23T05:33:53;12.87;;;11.77;;
57551;SDS011;43379;48.160;14.036;2022-09-23T05:36:24;12.27;;;11.10;;
57551;SDS011;43379;48.160;14.036;2022-09-23T05:38:51;10.47;;;9.60;;
57551;SDS011;43379;48.160;14.036;2022-09-23T05:41:18;9.87;;;8.87;;
57551;SDS011;43379;48.160;14.036;2022-09-23T05:43:47;9.83;;;8.97;;
57551;SDS011;43379;48.160;14.036;2022-09-23T05:46:16;9.53;;;8.70;;
57551;SDS011;43379;48.160;14.036;2022-09-23T05:48:43;9.83;;;8.93;;
57551;SDS011;43379;48.160;14.036;2022-09-23T05:51:12;11.47;;;10.47;;
57551;SDS011;43379;48.160;14.036;2022-09-23T05:53:39;11.13;;;10.13;;
57551;SDS011;43379;48.160;14.036;2022-09-23T05:56:09;10.20;;;9.30;;
57551;SDS011;43379;48.160;14.036;2022-09-23T05:58:39;10.83;;;9.70;;
57551;SDS011;43379;48.160;14.036;2022-09-23T06:01:12;10.77;;;9.77;;
57551;SDS011;43379;48.160;14.036;2022-09-23T06:03:39;9.40;;;8.60;;
57551;SDS011;43379;48.160;14.036;2022-09-23T06:06:06;8.93;;;8.23;;
57551;SDS011;43379;48.160;14.036;2022-09-23T06:08:35;10.50;;;9.43;;
57551;SDS011;43379;48.160;14.036;2022-09-23T06:11:03;10.50;;;9.43;;
57551;SDS011;43379;48.160;14.036;2022-09-23T06:13:32;11.63;;;10.40;;
57551;SDS011;43379;48.160;14.036;2022-09-23T06:15:59;11.13;;;10.13;;
57551;SDS011;43379;48.160;14.036;2022-09-23T06:18:25;11.80;;;10.80;;
57551;SDS011;43379;48.160;14.036;2022-09-23T06:20:51;10.70;;;9.80;;
57551;SDS011;43379;48.160;14.036;2022-09-23T06:23:17;11.77;;;10.77;;
57551;SDS011;43379;48.160;14.036;2022-09-23T06:25:42;15.80;;;9.40;;
57551;SDS011;43379;48.160;14.036;2022-09-23T06:28:08;9.40;;;8.60;;
57551;SDS011;43379;48.160;14.036;2022-09-23T06:30:34;8.73;;;7.47;;
57551;SDS011;43379;48.160;14.036;2022-09-23T06:33:00;8.27;;;7.50;;
57551;SDS011;43379;48.160;14.036;2022-09-23T06:35:26;8.83;;;8.13;;
57551;SDS011;43379;48.160;14.036;2022-09-23T06:37:52;9.30;;;8.60;;
57551;SDS011;43379;48.160;14.036;2022-09-23T06:40:19;9.77;;;8.70;;
57551;SDS011;43379;48.160;14.036;2022-09-23T06:42:46;10.80;;;9.50;;
57551;SDS011;43379;48.160;14.036;2022-09-23T06:45:12;9.63;;;8.93;;
57551;SDS011;43379;48.160;14.036;2022-09-23T06:47:42;10.07;;;9.17;;
57551;SDS011;43379;48.160;14.036;2022-09-23T06:50:08;9.27;;;8.47;;
57551;SDS011;43379;48.160;14.036;2022-09-23T06:52:36;10.17;;;9.33;;
57551;SDS011;43379;48.160;14.036;2022-09-23T06:55:02;8.60;;;7.90;;
57551;SDS011;43379;48.160;14.036;2022-09-23T06:57:28;8.40;;;7.70;;
57551;SDS011;43379;48.160;14.036;2022-09-23T06:59:54;7.70;;;7.10;;
57551;SDS011;43379;48.160;14.036;2022-09-23T07:02:22;7.07;;;6.37;;
57551;SDS011;43379;48.160;14.036;2022-09-23T07:04:48;7.50;;;6.93;;
57551;SDS011;43379;48.160;14.036;2022-09-23T07:07:13;7.03;;;6.43;;
57551;SDS011;43379;48.160;14.036;2022-09-23T07:09:40;7.43;;;6.87;;
57551;SDS011;43379;48.160;14.036;2022-09-23T07:12:06;8.13;;;7.53;;
57551;SDS011;43379;48.160;14.036;2022-09-23T07:14:32;7.37;;;6.87;;
57551;SDS011;43379;48.160;14.036;2022-09-23T07:16:57;8.70;;;8.10;;
57551;SDS011;43379;48.160;14.036;2022-09-23T07:19:23;7.20;;;6.60;;
57551;SDS011;43379;48.160;14.036;2022-09-23T07:21:50;9.80;;;8.17;;
57551;SDS011;43379;48.160;14.036;2022-09-23T07:24:15;8.33;;;7.53;;
57551;SDS011;43379;48.160;14.036;2022-09-23T07:26:42;16.53;;;8.67;;
57551;SDS011;43379;48.160;14.036;2022-09-23T07:29:10;8.40;;;7.80;;
57551;SDS011;43379;48.160;14.036;2022-09-23T07:31:37;8.83;;;8.13;;
57551;SDS011;43379;48.160;14.036;2022-09-23T07:34:03;9.20;;;8.50;;
57551;SDS011;43379;48.160;14.036;2022-09-23T07:36:29;8.70;;;7.87;;
57551;SDS011;43379;48.160;14.036;2022-09-23T07:38:56;8.53;;;7.77;;
57551;SDS011;43379;48.160;14.036;2022-09-23T07:41:27;8.57;;;7.90;;
57551;SDS011;43379;48.160;14.036;2022-09-23T07:43:55;8.50;;;7.90;;
57551;SDS011;43379;48.160;14.036;2022-09-23T07:46:23;8.40;;;7.80;;
57551;SDS011;43379;48.160;14.036;2022-09-23T07:48:51;8.73;;;8.03;;
57551;SDS011;43379;48.160;14.036;2022-09-23T07:53:46;7.83;;;7.23;;
57551;SDS011;43379;48.160;14.036;2022-09-23T07:56:13;7.77;;;7.17;;
57551;SDS011;43379;48.160;14.036;2022-09-23T07:58:39;9.23;;;8.40;;
57551;SDS011;43379;48.160;14.036;2022-09-23T08:01:06;8.57;;;7.87;;
57551;SDS011;43379;48.160;14.036;2022-09-23T08:03:33;11.27;;;7.53;;
57551;SDS011;43379;48.160;14.036;2022-09-23T08:06:06;7.93;;;7.23;;
57551;SDS011;43379;48.160;14.036;2022-09-23T08:08:34;7.50;;;6.90;;
57551;SDS011;43379;48.160;14.036;2022-09-23T08:11:03;8.53;;;7.87;;
57551;SDS011;43379;48.160;14.036;2022-09-23T08:13:31;8.60;;;7.90;;
57551;SDS011;43379;48.160;14.036;2022-09-23T08:15:56;9.17;;;8.17;;
57551;SDS011;43379;48.160;14.036;2022-09-23T08:18:22;8.53;;;7.73;;
57551;SDS011;43379;48.160;14.036;2022-09-23T08:20:48;7.00;;;6.50;;
57551;SDS011;43379;48.160;14.036;2022-09-23T08:23:14;7.67;;;7.07;;
57551;SDS011;43379;48.160;14.036;2022-09-23T08:25:40;8.07;;;7.37;;
57551;SDS011;43379;48.160;14.036;2022-09-23T08:28:07;7.47;;;6.97;;
57551;SDS011;43379;48.160;14.036;2022-09-23T08:30:33;8.60;;;7.90;;
57551;SDS011;43379;48.160;14.036;2022-09-23T08:32:59;7.40;;;6.90;;
57551;SDS011;43379;48.160;14.036;2022-09-23T08:35:24;7.60;;;7.00;;
57551;SDS011;43379;48.160;14.036;2022-09-23T08:37:50;7.20;;;6.70;;
57551;SDS011;43379;48.160;14.036;2022-09-23T08:40:17;7.90;;;7.23;;
57551;SDS011;43379;48.160;14.036;2022-09-23T08:42:43;6.30;;;5.80;;
57551;SDS011;43379;48.160;14.036;2022-09-23T08:48:15;6.30;;;5.80;;
57551;SDS011;43379;48.160;14.036;2022-09-23T08:50:49;5.90;;;5.50;;
57551;SDS011;43379;48.160;14.036;2022-09-23T08:53:31;7.17;;;6.57;;
57551;SDS011;43379;48.160;14.036;2022-09-23T08:55:59;7.03;;;6.33;;
57551;SDS011;43379;48.160;14.036;2022-09-23T09:01:17;6.00;;;5.50;;
57551;SDS011;43379;48.160;14.036;2022-09-23T09:04:04;5.97;;;5.57;;
57551;SDS011;43379;48.160;14.036;2022-09-23T09:06:45;5.97;;;5.47;;
57551;SDS011;43379;48.160;14.036;2022-09-23T09:09:35;6.10;;;5.60;;
57551;SDS011;43379;48.160;14.036;2022-09-23T09:12:27;6.00;;;5.50;;
57551;SDS011;43379;48.160;14.036;2022-09-23T09:15:15;5.87;;;5.37;;
57551;SDS011;43379;48.160;14.036;2022-09-23T09:23:33;3.90;;;3.70;;
57551;SDS011;43379;48.160;14.036;2022-09-23T09:26:04;4.70;;;4.40;;
57551;SDS011;43379;48.160;14.036;2022-09-23T09:28:40;4.37;;;3.97;;
57551;SDS011;43379;48.160;14.036;2022-09-23T09:36:32;3.50;;;3.30;;
57551;SDS011;43379;48.160;14.036;2022-09-23T09:39:04;3.50;;;3.20;;
57551;SDS011;43379;48.160;14.036;2022-09-23T09:41:30;3.80;;;3.60;;
57551;SDS011;43379;48.160;14.036;2022-09-23T09:43:56;3.30;;;3.10;;
57551;SDS011;43379;48.160;14.036;2022-09-23T09:49:06;5.23;;;3.20;;
57551;SDS011;43379;48.160;14.036;2022-09-23T09:51:47;3.23;;;3.03;;
57551;SDS011;43379;48.160;14.036;2022-09-23T09:54:33;3.10;;;2.90;;
57551;SDS011;43379;48.160;14.036;2022-09-23T09:57:01;3.30;;;2.87;;
57551;SDS011;43379;48.160;14.036;2022-09-23T09:59:29;2.93;;;2.73;;
57551;SDS011;43379;48.160;14.036;2022-09-23T10:04:55;3.57;;;3.17;;
57551;SDS011;43379;48.160;14.036;2022-09-23T10:07:25;3.00;;;2.80;;
57551;SDS011;43379;48.160;14.036;2022-09-23T10:09:52;3.30;;;3.10;;
57551;SDS011;43379;48.160;14.036;2022-09-23T10:12:27;3.90;;;3.10;;
57551;SDS011;43379;48.160;14.036;2022-09-23T10:15:29;3.40;;;3.10;;
57551;SDS011;43379;48.160;14.036;2022-09-23T10:17:58;3.57;;;3.23;;
57551;SDS011;43379;48.160;14.036;2022-09-23T10:20:30;3.10;;;2.90;;
57551;SDS011;43379;48.160;14.036;2022-09-23T10:23:04;2.37;;;2.23;;
57551;SDS011;43379;48.160;14.036;2022-09-23T10:25:38;3.20;;;2.87;;
57551;SDS011;43379;48.160;14.036;2022-09-23T10:33:33;3.03;;;2.83;;
57551;SDS011;43379;48.160;14.036;2022-09-23T10:36:08;5.40;;;3.20;;
57551;SDS011;43379;48.160;14.036;2022-09-23T10:38:34;3.07;;;2.87;;
57551;SDS011;43379;48.160;14.036;2022-09-23T10:40:59;3.23;;;2.90;;
57551;SDS011;43379;48.160;14.036;2022-09-23T10:43:51;3.27;;;2.70;;
57551;SDS011;43379;48.160;14.036;2022-09-23T10:46:39;4.27;;;3.97;;
57551;SDS011;43379;48.160;14.036;2022-09-23T11:25:50;3.70;;;3.40;;
57551;SDS011;43379;48.160;14.036;2022-09-23T11:31:29;2.93;;;2.73;;
57551;SDS011;43379;48.160;14.036;2022-09-23T11:37:00;3.13;;;2.93;;
57551;SDS011;43379;48.160;14.036;2022-09-23T11:39:35;2.87;;;2.67;;
57551;SDS011;43379;48.160;14.036;2022-09-23T11:42:05;3.30;;;2.63;;
57551;SDS011;43379;48.160;14.036;2022-09-23T11:44:45;2.90;;;2.70;;
57551;SDS011;43379;48.160;14.036;2022-09-23T11:47:23;3.23;;;3.00;;
57551;SDS011;43379;48.160;14.036;2022-09-23T11:52:39;3.00;;;2.80;;
57551;SDS011;43379;48.160;14.036;2022-09-23T11:55:26;2.80;;;2.60;;
57551;SDS011;43379;48.160;14.036;2022-09-23T11:57:56;3.30;;;2.97;;
57551;SDS011;43379;48.160;14.036;2022-09-23T12:00:32;3.40;;;3.10;;
57551;SDS011;43379;48.160;14.036;2022-09-23T12:08:30;3.17;;;2.93;;
57551;SDS011;43379;48.160;14.036;2022-09-23T12:11:03;2.80;;;2.40;;
57551;SDS011;43379;48.160;14.036;2022-09-23T12:16:37;4.60;;;2.80;;
57551;SDS011;43379;48.160;14.036;2022-09-23T12:29:56;2.70;;;2.50;;
57551;SDS011;43379;48.160;14.036;2022-09-23T12:32:25;4.07;;;2.77;;
57551;SDS011;43379;48.160;14.036;2022-09-23T12:34:52;2.83;;;2.63;;
57551;SDS011;43379;48.160;14.036;2022-09-23T12:37:37;2.97;;;2.67;;
57551;SDS011;43379;48.160;14.036;2022-09-23T12:40:07;2.60;;;2.40;;
57551;SDS011;43379;48.160;14.036;2022-09-23T12:42:55;3.00;;;2.80;;
57551;SDS011;43379;48.160;14.036;2022-09-23T12:47:58;4.17;;;3.13;;
57551;SDS011;43379;48.160;14.036;2022-09-23T13:01:07;2.77;;;2.53;;
57551;SDS011;43379;48.160;14.036;2022-09-23T13:03:48;2.53;;;2.33;;
57551;SDS011;43379;48.160;14.036;2022-09-23T13:06:39;3.43;;;3.13;;
57551;SDS011;43379;48.160;14.036;2022-09-23T13:09:20;3.20;;;2.80;;
57551;SDS011;43379;48.160;14.036;2022-09-23T13:11:49;4.03;;;2.80;;
57551;SDS011;43379;48.160;14.036;2022-09-23T13:14:18;3.97;;;2.70;;
57551;SDS011;43379;48.160;14.036;2022-09-23T13:16:47;3.10;;;2.80;;
57551;SDS011;43379;48.160;14.036;2022-09-23T13:26:46;3.10;;;2.53;;
57551;SDS011;43379;48.160;14.036;2022-09-23T13:29:28;3.53;;;3.23;;
57551;SDS011;43379;48.160;14.036;2022-09-23T13:32:01;3.00;;;2.80;;
57551;SDS011;43379;48.160;14.036;2022-09-23T13:34:31;2.73;;;2.53;;
57551;SDS011;43379;48.160;14.036;2022-09-23T13:37:10;2.73;;;2.53;;
57551;SDS011;43379;48.160;14.036;2022-09-23T13:39:41;2.80;;;2.60;;
57551;SDS011;43379;48.160;14.036;2022-09-23T13:42:07;2.77;;;2.57;;
57551;SDS011;43379;48.160;14.036;2022-09-23T13:44:43;3.40;;;2.90;;
57551;SDS011;43379;48.160;14.036;2022-09-23T13:47:09;3.33;;;2.97;;
57551;SDS011;43379;48.160;14.036;2022-09-23T13:49:37;2.50;;;2.30;;
57551;SDS011;43379;48.160;14.036;2022-09-23T13:52:05;3.10;;;2.90;;
57551;SDS011;43379;48.160;14.036;2022-09-23T13:54:50;3.60;;;2.70;;
57551;SDS011;43379;48.160;14.036;2022-09-23T13:57:23;2.73;;;2.50;;
57551;SDS011;43379;48.160;14.036;2022-09-23T13:59:51;6.00;;;2.37;;
57551;SDS011;43379;48.160;14.036;2022-09-23T14:02:17;2.70;;;2.30;;
57551;SDS011;43379;48.160;14.036;2022-09-23T14:04:44;3.10;;;2.20;;
57551;SDS011;43379;48.160;14.036;2022-09-23T14:07:13;2.47;;;2.27;;
57551;SDS011;43379;48.160;14.036;2022-09-23T14:09:41;2.97;;;2.67;;
57551;SDS011;43379;48.160;14.036;2022-09-23T14:12:09;2.67;;;2.47;;
57551;SDS011;43379;48.160;14.036;2022-09-23T14:14:36;4.90;;;2.90;;
57551;SDS011;43379;48.160;14.036;2022-09-23T14:17:03;6.17;;;2.93;;
57551;SDS011;43379;48.160;14.036;2022-09-23T14:19:30;3.27;;;2.20;;
57551;SDS011;43379;48.160;14.036;2022-09-23T14:21:57;2.77;;;2.57;;
57551;SDS011;43379;48.160;14.036;2022-09-23T14:24:34;3.17;;;2.67;;
57551;SDS011;43379;48.160;14.036;2022-09-23T14:29:33;4.13;;;2.50;;
57551;SDS011;43379;48.160;14.036;2022-09-23T14:32:13;4.10;;;2.70;;
57551;SDS011;43379;48.160;14.036;2022-09-23T14:34:48;2.67;;;2.47;;
57551;SDS011;43379;48.160;14.036;2022-09-23T14:40:01;4.60;;;2.30;;
57551;SDS011;43379;48.160;14.036;2022-09-23T14:42:29;2.90;;;2.70;;
57551;SDS011;43379;48.160;14.036;2022-09-23T14:45:02;2.87;;;2.37;;
57551;SDS011;43379;48.160;14.036;2022-09-23T14:47:30;2.83;;;2.63;;
57551;SDS011;43379;48.160;14.036;2022-09-23T14:49:58;2.80;;;2.60;;
57551;SDS011;43379;48.160;14.036;2022-09-23T14:52:49;5.17;;;2.70;;
57551;SDS011;43379;48.160;14.036;2022-09-23T14:55:15;2.40;;;2.20;;
57551;SDS011;43379;48.160;14.036;2022-09-23T14:57:42;2.70;;;2.50;;
57551;SDS011;43379;48.160;14.036;2022-09-23T15:00:16;2.83;;;2.63;;
57551;SDS011;43379;48.160;14.036;2022-09-23T15:02:44;3.87;;;3.50;;
57551;SDS011;43379;48.160;14.036;2022-09-23T15:05:22;2.80;;;2.60;;
57551;SDS011;43379;48.160;14.036;2022-09-23T15:07:56;3.10;;;2.70;;
57551;SDS011;43379;48.160;14.036;2022-09-23T15:10:25;3.30;;;3.10;;
57551;SDS011;43379;48.160;14.036;2022-09-23T15:13:01;2.87;;;2.67;;
57551;SDS011;43379;48.160;14.036;2022-09-23T15:15:52;3.60;;;3.30;;
57551;SDS011;43379;48.160;14.036;2022-09-23T15:18:23;5.27;;;3.60;;
57551;SDS011;43379;48.160;14.036;2022-09-23T15:20:51;3.50;;;3.30;;
57551;SDS011;43379;48.160;14.036;2022-09-23T15:26:10;3.60;;;3.37;;
57551;SDS011;43379;48.160;14.036;2022-09-23T15:28:44;6.10;;;3.13;;
57551;SDS011;43379;48.160;14.036;2022-09-23T15:31:11;2.80;;;2.60;;
57551;SDS011;43379;48.160;14.036;2022-09-23T15:33:37;3.03;;;2.70;;
57551;SDS011;43379;48.160;14.036;2022-09-23T15:36:03;3.20;;;2.90;;
57551;SDS011;43379;48.160;14.036;2022-09-23T15:38:29;3.13;;;2.83;;
57551;SDS011;43379;48.160;14.036;2022-09-23T15:40:55;3.10;;;2.80;;
57551;SDS011;43379;48.160;14.036;2022-09-23T15:43:21;4.13;;;3.73;;
57551;SDS011;43379;48.160;14.036;2022-09-23T15:46:07;4.33;;;3.70;;
57551;SDS011;43379;48.160;14.036;2022-09-23T15:48:51;3.60;;;3.30;;
57551;SDS011;43379;48.160;14.036;2022-09-23T15:51:19;3.13;;;2.93;;
57551;SDS011;43379;48.160;14.036;2022-09-23T15:53:45;3.53;;;2.60;;
57551;SDS011;43379;48.160;14.036;2022-09-23T15:56:11;3.40;;;3.10;;
57551;SDS011;43379;48.160;14.036;2022-09-23T15:58:37;3.40;;;3.10;;
57551;SDS011;43379;48.160;14.036;2022-09-23T16:01:03;3.43;;;3.13;;
57551;SDS011;43379;48.160;14.036;2022-09-23T16:03:29;3.53;;;2.40;;
57551;SDS011;43379;48.160;14.036;2022-09-23T16:05:59;3.07;;;2.60;;
57551;SDS011;43379;48.160;14.036;2022-09-23T16:08:27;3.27;;;3.07;;
57551;SDS011;43379;48.160;14.036;2022-09-23T16:10:54;2.57;;;2.43;;
57551;SDS011;43379;48.160;14.036;2022-09-23T16:13:20;3.33;;;3.03;;
57551;SDS011;43379;48.160;14.036;2022-09-23T16:15:46;3.03;;;2.67;;
57551;SDS011;43379;48.160;14.036;2022-09-23T16:18:11;3.90;;;2.80;;
57551;SDS011;43379;48.160;14.036;2022-09-23T16:20:38;3.93;;;3.63;;
57551;SDS011;43379;48.160;14.036;2022-09-23T16:23:09;7.63;;;3.10;;
57551;SDS011;43379;48.160;14.036;2022-09-23T16:25:58;3.30;;;3.00;;
57551;SDS011;43379;48.160;14.036;2022-09-23T16:28:54;5.47;;;3.47;;
57551;SDS011;43379;48.160;14.036;2022-09-23T16:31:21;5.20;;;3.33;;
57551;SDS011;43379;48.160;14.036;2022-09-23T16:33:49;4.80;;;3.60;;
57551;SDS011;43379;48.160;14.036;2022-09-23T16:36:23;4.40;;;4.00;;
57551;SDS011;43379;48.160;14.036;2022-09-23T16:38:56;3.80;;;3.30;;
57551;SDS011;43379;48.160;14.036;2022-09-23T16:41:23;6.63;;;4.30;;
57551;SDS011;43379;48.160;14.036;2022-09-23T16:43:50;5.83;;;5.33;;
57551;SDS011;43379;48.160;14.036;2022-09-23T16:46:17;6.00;;;5.10;;
57551;SDS011;43379;48.160;14.036;2022-09-23T16:48:44;5.90;;;5.40;;
57551;SDS011;43379;48.160;14.036;2022-09-23T16:54:05;7.50;;;6.20;;
57551;SDS011;43379;48.160;14.036;2022-09-23T16:56:35;11.13;;;9.80;;
57551;SDS011;43379;48.160;14.036;2022-09-23T16:59:03;13.80;;;12.33;;
57551;SDS011;43379;48.160;14.036;2022-09-23T17:01:29;13.07;;;11.67;;
57551;SDS011;43379;48.160;14.036;2022-09-23T17:04:13;15.80;;;13.70;;
57551;SDS011;43379;48.160;14.036;2022-09-23T17:06:41;13.97;;;12.63;;
57551;SDS011;43379;48.160;14.036;2022-09-23T17:09:08;13.93;;;12.73;;
57551;SDS011;43379;48.160;14.036;2022-09-23T17:11:34;11.70;;;10.60;;
57551;SDS011;43379;48.160;14.036;2022-09-23T17:14:01;11.97;;;10.93;;
57551;SDS011;43379;48.160;14.036;2022-09-23T17:16:30;11.33;;;10.17;;
57551;SDS011;43379;48.160;14.036;2022-09-23T17:18:57;11.50;;;10.40;;
57551;SDS011;43379;48.160;14.036;2022-09-23T17:21:24;11.20;;;10.10;;
57551;SDS011;43379;48.160;14.036;2022-09-23T17:23:54;11.50;;;10.30;;
57551;SDS011;43379;48.160;14.036;2022-09-23T17:26:21;9.80;;;8.90;;
57551;SDS011;43379;48.160;14.036;2022-09-23T17:28:48;16.03;;;14.63;;
57551;SDS011;43379;48.160;14.036;2022-09-23T17:31:15;15.03;;;13.73;;
57551;SDS011;43379;48.160;14.036;2022-09-23T17:33:42;15.70;;;14.40;;
57551;SDS011;43379;48.160;14.036;2022-09-23T17:36:09;17.40;;;15.83;;
57551;SDS011;43379;48.160;14.036;2022-09-23T17:38:36;18.53;;;16.83;;
57551;SDS011;43379;48.160;14.036;2022-09-23T17:41:05;18.70;;;16.90;;
57551;SDS011;43379;48.160;14.036;2022-09-23T17:43:32;19.30;;;17.50;;
57551;SDS011;43379;48.160;14.036;2022-09-23T17:46:07;18.83;;;16.80;;
57551;SDS011;43379;48.160;14.036;2022-09-23T17:48:37;20.70;;;18.80;;
57551;SDS011;43379;48.160;14.036;2022-09-23T17:53:31;21.93;;;20.07;;
57551;SDS011;43379;48.160;14.036;2022-09-23T17:56:20;23.27;;;20.77;;
57551;SDS011;43379;48.160;14.036;2022-09-23T17:58:46;20.23;;;18.43;;